Time;durP1;ratioP1;P1;durP2;ratioP2;P2;SDS_P1;SDS_P2;PMS_P1;PMS_P2;Temp;Humidity;BMP_temperature;BMP_pressure;BME280_temperature;BME280_humidity;BME280_pressure;Samples;Min_cycle;Max_cycle;Signal;HPM_P1;HPM_P2
2022/09/09 00:01:58;;;;;;;;;;;;;;;14.86;100.00;-25485.13;5060156;28;19917;-89
2022/09/09 00:04:34;;;;;;;;;;;;;;;14.84;100.00;-25484.56;5058192;28;19920;-88
2022/09/09 00:07:17;;;;;;;;;;;;;;;14.84;100.00;-25484.56;5055219;28;19967;-84
2022/09/09 00:09:49;;;;;;;;;;;;;;;14.78;100.00;-25482.94;5063687;28;19917;-87
2022/09/09 00:12:30;;;;;;;;;;;;;;;14.75;100.00;-25481.94;5053445;28;19956;-82
2022/09/09 00:15:02;;;;;;;;;;;;;;;14.71;100.00;-25481.06;5053320;28;19917;-83
2022/09/09 00:17:47;;;;;;;;;;;;;;;14.68;100.00;-25480.03;5062716;28;19928;-84
2022/09/09 00:20:13;;;;;;;;;;;;;;;14.65;100.00;-25479.31;5075107;28;19928;-81
2022/09/09 00:22:50;;;;;;;;;;;;;;;14.63;100.00;-25478.56;5059413;28;19917;-86
2022/09/09 00:25:23;;;;;;;;;;;;;;;14.55;100.00;-25476.53;5052335;28;20396;-88
2022/09/09 00:27:49;;;;;;;;;;;;;;;14.54;100.00;-25476.09;5052249;28;19971;-87
2022/09/09 00:30:16;;;;;;;;;;;;;;;14.53;100.00;-25475.94;5060147;28;19917;-88
2022/09/09 00:32:43;;;;;;;;;;;;;;;14.51;100.00;-25475.38;5059942;28;19924;-84
2022/09/09 00:35:23;;;;;;;;;;;;;;;14.51;100.00;-25475.22;5062043;28;19916;-91
2022/09/09 00:37:51;;;;;;;;;;;;;;;14.47;100.00;-25474.19;5068605;28;19999;-78
2022/09/09 00:40:24;;;;;;;;;;;;;;;14.42;100.00;-25472.59;5054620;28;19925;-87
2022/09/09 00:42:54;;;;;;;;;;;;;;;14.44;100.00;-25473.19;5064933;28;19917;-82
2022/09/09 00:45:33;;;;;;;;;;;;;;;14.42;100.00;-25472.75;5085598;28;20026;-82
2022/09/09 00:48:01;;;;;;;;;;;;;;;14.40;100.00;-25472.16;5077917;28;19917;-84
2022/09/09 00:50:49;;;;;;;;;;;;;;;14.36;100.00;-25471.16;5076247;28;20010;-88
2022/09/09 00:53:27;;;;;;;;;;;;;;;14.34;100.00;-25470.56;5072612;28;19924;-87
2022/09/09 00:55:59;;;;;;;;;;;;;;;14.35;100.00;-25470.72;5066091;28;20001;-84
2022/09/09 00:58:24;;;;;;;;;;;;;;;14.37;100.00;-25471.28;5069311;28;19916;-88
2022/09/09 01:00:55;;;;;;;;;;;;;;;14.39;100.00;-25471.72;5057851;28;19939;-82
2022/09/09 01:03:24;;;;;;;;;;;;;;;14.38;100.00;-25471.44;5054948;28;19916;-88
2022/09/09 01:06:08;;;;;;;;;;;;;;;14.34;100.00;-25470.41;5055557;28;19917;-85
2022/09/09 01:08:33;;;;;;;;;;;;;;;14.29;100.00;-25468.97;5058124;28;19920;-82
2022/09/09 01:10:59;;;;;;;;;;;;;;;14.28;100.00;-25468.66;5061449;28;20384;-82
2022/09/09 01:13:33;;;;;;;;;;;;;;;14.28;100.00;-25468.81;5056130;28;19924;-90
2022/09/09 01:15:59;;;;;;;;;;;;;;;14.28;100.00;-25468.66;5065072;28;19916;-86
2022/09/09 01:18:27;;;;;;;;;;;;;;;14.27;100.00;-25468.53;5075587;28;19916;-85
2022/09/09 01:21:13;;;;;;;;;;;;;;;14.30;100.00;-25469.41;5076256;28;19917;-86
2022/09/09 01:23:42;;;;;;;;;;;;;;;14.36;100.00;-25471.16;5076166;28;19917;-86
2022/09/09 01:26:17;;;;;;;;;;;;;;;14.41;100.00;-25472.31;5035891;28;19929;-89
2022/09/09 01:28:45;;;;;;;;;;;;;;;14.44;100.00;-25473.34;5071851;28;20373;-85
2022/09/09 01:31:14;;;;;;;;;;;;;;;14.46;100.00;-25473.91;5056304;28;19971;-88
2022/09/09 01:33:39;;;;;;;;;;;;;;;14.48;100.00;-25474.34;5057116;28;19921;-88
2022/09/09 01:36:07;;;;;;;;;;;;;;;14.51;100.00;-25475.22;5076365;28;20043;-84
2022/09/09 01:38:34;;;;;;;;;;;;;;;14.54;100.00;-25476.09;5092200;28;19908;-85
2022/09/09 01:40:59;;;;;;;;;;;;;;;14.53;100.00;-25475.94;5085047;28;19939;-82
2022/09/09 01:43:26;;;;;;;;;;;;;;;14.51;100.00;-25475.38;5080200;28;19917;-83
2022/09/09 01:45:56;;;;;;;;;;;;;;;14.51;100.00;-25475.22;5086198;28;19959;-85
2022/09/09 01:48:22;;;;;;;;;;;;;;;14.45;100.00;-25473.63;5088952;28;19991;-83
2022/09/09 01:50:47;;;;;;;;;;;;;;;14.43;100.00;-25473.03;5074442;28;20385;-83
2022/09/09 01:53:16;;;;;;;;;;;;;;;14.38;100.00;-25471.59;5085409;28;19932;-83
2022/09/09 01:55:45;;;;;;;;;;;;;;;14.32;100.00;-25469.97;5085374;28;19924;-83
2022/09/09 01:58:17;;;;;;;;;;;;;;;14.30;100.00;-25469.25;5091679;28;19928;-82
2022/09/09 02:00:48;;;;;;;;;;;;;;;14.32;100.00;-25469.97;5087072;28;19955;-81
2022/09/09 02:03:28;;;;;;;;;;;;;;;14.30;100.00;-25469.41;5088465;28;19952;-87
2022/09/09 02:05:53;;;;;;;;;;;;;;;14.31;100.00;-25469.53;5078216;28;19921;-89
2022/09/09 02:08:28;;;;;;;;;;;;;;;14.33;100.00;-25470.28;5076879;28;19935;-83
2022/09/09 02:11:10;;;;;;;;;;;;;;;14.35;100.00;-25470.84;5076008;28;19967;-82
2022/09/09 02:13:38;;;;;;;;;;;;;;;14.38;100.00;-25471.59;5085670;28;20383;-88
2022/09/09 02:16:41;;;;;;;;;;;;;;;14.40;100.00;-25472.03;5087165;28;19960;-82
2022/09/09 02:19:07;;;;;;;;;;;;;;;14.35;100.00;-25470.84;5030327;28;19921;-77
2022/09/09 02:21:34;;;;;;;;;;;;;;;14.31;100.00;-25469.53;5012384;28;19940;-86
2022/09/09 02:24:04;;;;;;;;;;;;;;;14.33;100.00;-25470.28;5043576;28;19928;-77
2022/09/09 02:26:30;;;;;;;;;;;;;;;14.31;100.00;-25469.53;5075815;28;19920;-80
2022/09/09 02:28:58;;;;;;;;;;;;;;;14.30;100.00;-25469.41;5058853;28;19939;-87
2022/09/09 02:31:24;;;;;;;;;;;;;;;14.30;100.00;-25469.41;5058706;28;19972;-89
2022/09/09 02:33:55;;;;;;;;;;;;;;;14.27;100.00;-25468.38;5057310;28;19917;-86
2022/09/09 02:36:23;;;;;;;;;;;;;;;14.23;100.00;-25467.34;5074436;28;19927;-76
2022/09/09 02:38:50;;;;;;;;;;;;;;;14.21;100.00;-25466.78;5071095;28;19920;-79
2022/09/09 02:41:17;;;;;;;;;;;;;;;14.22;100.00;-25467.06;5056005;28;19923;-77
2022/09/09 02:43:43;;;;;;;;;;;;;;;14.20;100.00;-25466.47;5051509;28;19932;-77
2022/09/09 02:46:24;;;;;;;;;;;;;;;14.18;100.00;-25466.03;5063472;28;19923;-77
2022/09/09 02:48:54;;;;;;;;;;;;;;;14.15;100.00;-25465.03;5072603;28;20319;-77
2022/09/09 02:51:39;;;;;;;;;;;;;;;14.15;100.00;-25465.03;5055458;28;19963;-77
2022/09/09 02:54:25;;;;;;;;;;;;;;;14.14;100.00;-25464.72;5050521;28;19917;-77
2022/09/09 02:56:52;;;;;;;;;;;;;;;14.10;100.00;-25463.56;5051966;28;20015;-76
2022/09/09 02:59:18;;;;;;;;;;;;;;;14.07;100.00;-25462.69;5052278;28;20026;-79
2022/09/09 03:01:43;;;;;;;;;;;;;;;14.09;100.00;-25463.28;5057240;28;19927;-89
2022/09/09 03:04:13;;;;;;;;;;;;;;;14.06;100.00;-25462.41;5052558;28;19916;-78
2022/09/09 03:06:39;;;;;;;;;;;;;;;14.05;100.00;-25462.09;5072533;28;19921;-86
2022/09/09 03:09:04;;;;;;;;;;;;;;;14.05;100.00;-25462.25;5072563;28;19978;-85
2022/09/09 03:11:29;;;;;;;;;;;;;;;14.07;100.00;-25462.69;5053857;28;19917;-76
2022/09/09 03:13:55;;;;;;;;;;;;;;;14.07;100.00;-25462.69;5050602;28;19920;-80
2022/09/09 03:16:21;;;;;;;;;;;;;;;14.10;100.00;-25463.72;5050686;28;20011;-76
2022/09/09 03:18:46;;;;;;;;;;;;;;;14.06;100.00;-25462.41;5054827;28;20039;-76
2022/09/09 03:21:12;;;;;;;;;;;;;;;14.07;100.00;-25462.84;5066385;28;20420;-76
2022/09/09 03:23:45;;;;;;;;;;;;;;;14.09;100.00;-25463.28;5053240;28;19917;-81
2022/09/09 03:26:10;;;;;;;;;;;;;;;14.10;100.00;-25463.72;5069741;28;19920;-77
2022/09/09 03:28:35;;;;;;;;;;;;;;;14.14;100.00;-25464.88;5070343;28;20399;-77
2022/09/09 03:31:01;;;;;;;;;;;;;;;14.11;100.00;-25464.00;5071429;28;19924;-82
2022/09/09 03:33:27;;;;;;;;;;;;;;;14.08;100.00;-25463.13;5057842;28;20383;-77
2022/09/09 03:35:52;;;;;;;;;;;;;;;14.07;100.00;-25462.84;5051505;28;19921;-76
2022/09/09 03:38:18;;;;;;;;;;;;;;;14.08;100.00;-25462.97;5051363;28;19935;-76
2022/09/09 03:40:51;;;;;;;;;;;;;;;14.06;100.00;-25462.53;5051452;28;19920;-77
2022/09/09 03:43:17;;;;;;;;;;;;;;;14.08;100.00;-25463.13;5067793;28;19920;-79
2022/09/09 03:45:47;;;;;;;;;;;;;;;14.00;100.00;-25460.78;5070677;28;20349;-77
2022/09/09 03:48:12;;;;;;;;;;;;;;;13.98;100.00;-25460.34;5071400;28;20376;-77
2022/09/09 03:50:37;;;;;;;;;;;;;;;14.05;100.00;-25462.09;5063416;28;19975;-77
2022/09/09 03:53:05;;;;;;;;;;;;;;;14.03;100.00;-25461.66;5058406;28;19927;-77
2022/09/09 03:55:31;;;;;;;;;;;;;;;14.00;100.00;-25460.78;5059906;28;19988;-77
2022/09/09 03:57:56;;;;;;;;;;;;;;;14.00;100.00;-25460.94;5065171;28;19960;-75
2022/09/09 04:00:21;;;;;;;;;;;;;;;14.00;100.00;-25460.94;5064160;28;19928;-77
2022/09/09 04:02:49;;;;;;;;;;;;;;;14.01;100.00;-25461.09;5050830;28;19982;-77
2022/09/09 04:05:15;;;;;;;;;;;;;;;13.97;100.00;-25460.06;5050406;28;19920;-77
2022/09/09 04:07:40;;;;;;;;;;;;;;;13.96;100.00;-25459.78;5070641;28;19962;-76
2022/09/09 04:10:06;;;;;;;;;;;;;;;13.93;100.00;-25458.91;5063731;28;19917;-76
2022/09/09 04:12:34;;;;;;;;;;;;;;;13.94;100.00;-25459.19;5051315;28;19917;-77
2022/09/09 04:15:00;;;;;;;;;;;;;;;13.94;100.00;-25459.19;5053369;28;19913;-77
2022/09/09 04:17:25;;;;;;;;;;;;;;;13.93;100.00;-25458.91;5054875;28;20373;-77
2022/09/09 04:19:51;;;;;;;;;;;;;;;13.95;100.00;-25459.47;5054813;28;19940;-76
2022/09/09 04:22:18;;;;;;;;;;;;;;;13.94;100.00;-25459.03;5038431;28;20765;-78
2022/09/09 04:24:44;;;;;;;;;;;;;;;13.91;100.00;-25458.16;5059151;28;19917;-76
2022/09/09 04:27:09;;;;;;;;;;;;;;;13.88;100.00;-25457.44;5067269;28;19974;-75
2022/09/09 04:29:34;;;;;;;;;;;;;;;13.88;100.00;-25457.44;5054160;28;19924;-77
2022/09/09 04:32:00;;;;;;;;;;;;;;;13.89;100.00;-25457.59;5067402;28;20289;-77
2022/09/09 04:34:31;;;;;;;;;;;;;;;13.88;100.00;-25457.28;5074210;28;19976;-78
2022/09/09 04:36:56;;;;;;;;;;;;;;;13.87;100.00;-25457.00;5055535;28;19923;-77
2022/09/09 04:39:22;;;;;;;;;;;;;;;13.90;100.00;-25457.88;5054991;28;20007;-78
2022/09/09 04:41:47;;;;;;;;;;;;;;;13.96;100.00;-25459.78;5064809;28;19951;-77
2022/09/09 04:44:13;;;;;;;;;;;;;;;13.93;100.00;-25458.91;5063077;28;19923;-78
2022/09/09 04:46:40;;;;;;;;;;;;;;;13.94;100.00;-25459.19;5056871;28;19916;-78
2022/09/09 04:49:05;;;;;;;;;;;;;;;13.94;100.00;-25459.03;5055092;28;19936;-83
2022/09/09 04:51:31;;;;;;;;;;;;;;;13.92;100.00;-25458.47;5055533;28;20006;-86
2022/09/09 04:54:00;;;;;;;;;;;;;;;13.89;100.00;-25457.59;5055888;28;19917;-85
2022/09/09 04:56:28;;;;;;;;;;;;;;;13.88;100.00;-25457.44;5055953;28;20311;-87
2022/09/09 04:58:54;;;;;;;;;;;;;;;13.83;100.00;-25456.13;5068197;28;19935;-83
2022/09/09 05:01:21;;;;;;;;;;;;;;;13.79;100.00;-25454.81;5059750;28;19920;-85
2022/09/09 05:03:48;;;;;;;;;;;;;;;13.80;100.00;-25455.25;5056308;28;19913;-86
2022/09/09 05:06:35;;;;;;;;;;;;;;;13.78;100.00;-25454.53;5060312;28;19964;-81
2022/09/09 05:09:01;;;;;;;;;;;;;;;13.85;100.00;-25456.41;5053593;28;19916;-80
2022/09/09 05:11:27;;;;;;;;;;;;;;;13.86;100.00;-25456.84;5066186;28;19924;-81
2022/09/09 05:13:58;;;;;;;;;;;;;;;13.85;100.00;-25456.56;5074212;28;20372;-77
2022/09/09 05:16:23;;;;;;;;;;;;;;;13.86;100.00;-25456.84;5060848;28;19921;-78
2022/09/09 05:18:50;;;;;;;;;;;;;;;13.88;100.00;-25457.44;5061240;28;20030;-78
2022/09/09 05:21:15;;;;;;;;;;;;;;;13.87;100.00;-25457.00;5072751;28;20272;-77
2022/09/09 05:23:42;;;;;;;;;;;;;;;13.83;100.00;-25455.97;5054845;28;19920;-78
2022/09/09 05:26:11;;;;;;;;;;;;;;;13.90;100.00;-25458.03;5052514;28;19927;-78
2022/09/09 05:28:36;;;;;;;;;;;;;;;13.96;100.00;-25459.63;5054455;28;20285;-77
2022/09/09 05:31:07;;;;;;;;;;;;;;;14.14;100.00;-25464.72;5053842;28;19916;-77
2022/09/09 05:33:35;;;;;;;;;;;;;;;14.39;100.00;-25471.72;5062995;28;19928;-77
2022/09/09 05:36:08;;;;;;;;;;;;;;;14.65;100.00;-25479.16;5055635;28;19995;-78
2022/09/09 05:38:34;;;;;;;;;;;;;;;14.64;100.00;-25479.00;5064333;28;20316;-77
2022/09/09 05:40:59;;;;;;;;;;;;;;;15.14;100.00;-25493.00;5053848;28;19925;-79
2022/09/09 05:43:25;;;;;;;;;;;;;;;15.66;100.00;-25507.69;5053896;28;19924;-78
2022/09/09 05:46:04;;;;;;;;;;;;;;;16.11;100.00;-25520.63;5053553;28;20331;-78
2022/09/09 05:48:34;;;;;;;;;;;;;;;16.04;100.00;-25518.44;5054207;28;19924;-78
2022/09/09 05:50:59;;;;;;;;;;;;;;;15.81;100.00;-25512.06;5053936;28;20368;-78
2022/09/09 05:53:25;;;;;;;;;;;;;;;15.70;100.00;-25508.84;5047979;28;19921;-78
2022/09/09 05:55:58;;;;;;;;;;;;;;;15.68;100.00;-25508.28;5052963;28;19924;-78
2022/09/09 05:58:24;;;;;;;;;;;;;;;15.70;100.00;-25508.84;5053489;28;20007;-77
2022/09/09 06:00:50;;;;;;;;;;;;;;;15.73;100.00;-25509.88;5053031;28;19917;-87
2022/09/09 06:03:17;;;;;;;;;;;;;;;15.66;100.00;-25507.69;5054384;28;19924;-79
2022/09/09 06:05:42;;;;;;;;;;;;;;;15.70;100.00;-25508.84;5053749;28;19917;-78
2022/09/09 06:08:08;;;;;;;;;;;;;;;15.76;100.00;-25510.72;5055613;28;19923;-81
2022/09/09 06:10:33;;;;;;;;;;;;;;;15.86;100.00;-25513.50;5056481;28;20038;-79
2022/09/09 06:12:59;;;;;;;;;;;;;;;15.83;100.00;-25512.63;5054692;28;19978;-80
2022/09/09 06:15:25;;;;;;;;;;;;;;;15.86;100.00;-25513.34;5054450;28;19931;-82
2022/09/09 06:17:55;;;;;;;;;;;;;;;15.77;100.00;-25510.88;5064247;28;19985;-84
2022/09/09 06:20:21;;;;;;;;;;;;;;;15.64;100.00;-25507.25;5074702;28;20389;-86
2022/09/09 06:22:52;;;;;;;;;;;;;;;15.61;100.00;-25506.38;5075040;28;20376;-85
2022/09/09 06:25:18;;;;;;;;;;;;;;;15.55;100.00;-25504.63;5074522;28;19920;-84
2022/09/09 06:27:47;;;;;;;;;;;;;;;15.59;100.00;-25505.78;5055229;28;19921;-86
2022/09/09 06:30:13;;;;;;;;;;;;;;;15.69;100.00;-25508.69;5054998;28;19913;-86
2022/09/09 06:32:40;;;;;;;;;;;;;;;15.73;100.00;-25509.88;5053988;28;20352;-80
2022/09/09 06:35:06;;;;;;;;;;;;;;;15.94;100.00;-25515.69;5066673;28;20368;-77
2022/09/09 06:37:31;;;;;;;;;;;;;;;16.13;100.00;-25521.06;5057234;28;19928;-76
2022/09/09 06:39:56;;;;;;;;;;;;;;;16.09;100.00;-25519.91;5051458;28;19924;-76
2022/09/09 06:42:21;;;;;;;;;;;;;;;15.84;100.00;-25512.91;5050361;28;19924;-80
2022/09/09 06:44:47;;;;;;;;;;;;;;;15.79;100.00;-25511.47;5051842;28;19921;-77
2022/09/09 06:47:12;;;;;;;;;;;;;;;15.79;100.00;-25511.47;5050869;28;19952;-77
2022/09/09 06:49:37;;;;;;;;;;;;;;;15.81;100.00;-25511.91;5050290;28;19917;-78
2022/09/09 06:52:02;;;;;;;;;;;;;;;15.84;100.00;-25512.78;5051465;28;19926;-78
2022/09/09 06:54:28;;;;;;;;;;;;;;;15.82;100.00;-25512.34;5052531;28;19924;-77
2022/09/09 06:56:53;;;;;;;;;;;;;;;15.85;100.00;-25513.22;5050367;28;19917;-77
2022/09/09 06:59:19;;;;;;;;;;;;;;;15.82;100.00;-25512.19;5050948;28;20373;-77
2022/09/09 07:01:44;;;;;;;;;;;;;;;15.92;100.00;-25515.09;5052761;28;19917;-77
2022/09/09 07:04:10;;;;;;;;;;;;;;;15.93;100.00;-25515.41;5050548;28;20043;-79
2022/09/09 07:06:43;;;;;;;;;;;;;;;15.93;100.00;-25515.41;5051302;28;19919;-80
2022/09/09 07:09:10;;;;;;;;;;;;;;;15.91;100.00;-25514.97;5051078;28;20007;-78
2022/09/09 07:11:41;;;;;;;;;;;;;;;16.07;100.00;-25519.31;5050632;28;19917;-78
2022/09/09 07:14:07;;;;;;;;;;;;;;;16.10;100.00;-25520.19;5051578;28;19921;-79
2022/09/09 07:16:33;;;;;;;;;;;;;;;16.12;100.00;-25520.91;5050704;28;20054;-82
2022/09/09 07:18:58;;;;;;;;;;;;;;;16.23;100.00;-25523.81;5051959;28;20008;-81
2022/09/09 07:21:26;;;;;;;;;;;;;;;16.17;100.00;-25522.22;5051561;28;19917;-84
2022/09/09 07:23:51;;;;;;;;;;;;;;;16.20;100.00;-25522.94;5050293;28;19920;-83
2022/09/09 07:26:19;;;;;;;;;;;;;;;16.24;100.00;-25524.25;5051848;28;20372;-84
2022/09/09 07:28:44;;;;;;;;;;;;;;;16.20;100.00;-25522.94;5051600;28;19939;-82
2022/09/09 07:31:16;;;;;;;;;;;;;;;16.03;100.00;-25518.16;5050655;28;19917;-82
2022/09/09 07:33:42;;;;;;;;;;;;;;;16.07;100.00;-25519.47;5052073;28;19986;-80
2022/09/09 07:36:12;;;;;;;;;;;;;;;16.13;100.00;-25521.06;5051980;28;19971;-82
2022/09/09 07:38:48;;;;;;;;;;;;;;;16.06;100.00;-25519.16;5049552;28;19921;-79
2022/09/09 07:41:21;;;;;;;;;;;;;;;16.02;100.00;-25518.00;5050827;28;19917;-79
2022/09/09 07:43:47;;;;;;;;;;;;;;;15.99;100.00;-25517.13;5034027;28;19920;-80
2022/09/09 07:46:13;;;;;;;;;;;;;;;15.95;100.00;-25516.13;5049596;28;20343;-81
2022/09/09 07:48:43;;;;;;;;;;;;;;;15.92;100.00;-25515.09;5050129;28;20007;-78
2022/09/09 07:51:11;;;;;;;;;;;;;;;15.76;100.00;-25510.72;5050348;28;19923;-81
2022/09/09 07:53:37;;;;;;;;;;;;;;;15.80;100.00;-25511.75;5049544;28;20003;-79
2022/09/09 07:56:04;;;;;;;;;;;;;;;15.81;100.00;-25512.06;5051642;28;20007;-78
2022/09/09 07:58:29;;;;;;;;;;;;;;;15.83;100.00;-25512.50;5050095;28;20312;-79
2022/09/09 08:00:54;;;;;;;;;;;;;;;15.86;100.00;-25513.34;5050236;28;19923;-81
2022/09/09 08:03:21;;;;;;;;;;;;;;;15.82;100.00;-25512.34;5050329;28;19924;-83
2022/09/09 08:05:47;;;;;;;;;;;;;;;15.84;100.00;-25512.91;5050144;28;19913;-83
2022/09/09 08:08:12;;;;;;;;;;;;;;;15.87;100.00;-25513.66;5050690;28;20435;-83
2022/09/09 08:10:37;;;;;;;;;;;;;;;15.99;100.00;-25517.13;5051001;28;19920;-81
2022/09/09 08:13:02;;;;;;;;;;;;;;;15.91;100.00;-25514.97;5050440;28;19921;-82
2022/09/09 08:15:29;;;;;;;;;;;;;;;15.95;100.00;-25516.13;5051823;28;19917;-82
2022/09/09 08:17:55;;;;;;;;;;;;;;;15.97;100.00;-25516.56;5051293;28;19917;-81
2022/09/09 08:20:23;;;;;;;;;;;;;;;15.97;100.00;-25516.69;5051852;28;19939;-82
2022/09/09 08:22:49;;;;;;;;;;;;;;;15.99;100.00;-25517.13;5052006;28;19917;-82
2022/09/09 08:25:15;;;;;;;;;;;;;;;16.04;100.00;-25518.44;5051101;28;20012;-81
2022/09/09 08:27:40;;;;;;;;;;;;;;;16.12;100.00;-25520.91;5050906;28;19977;-81
2022/09/09 08:30:06;;;;;;;;;;;;;;;16.15;100.00;-25521.63;5051045;28;19916;-82
2022/09/09 08:32:32;;;;;;;;;;;;;;;16.19;100.00;-25522.66;5051568;28;19917;-81
2022/09/09 08:34:57;;;;;;;;;;;;;;;16.17;100.00;-25522.06;5049816;28;20032;-82
2022/09/09 08:37:22;;;;;;;;;;;;;;;16.07;100.00;-25519.47;5050566;28;19967;-81
2022/09/09 08:39:48;;;;;;;;;;;;;;;16.03;100.00;-25518.16;5051008;28;20369;-81
2022/09/09 08:42:19;;;;;;;;;;;;;;;16.13;100.00;-25521.06;5049869;28;19920;-82
2022/09/09 08:45:14;;;;;;;;;;;;;;;16.12;100.00;-25520.91;5051075;28;19947;-81
2022/09/09 08:47:47;;;;;;;;;;;;;;;16.10;100.00;-25520.34;5051433;28;19961;-83
2022/09/09 08:50:29;;;;;;;;;;;;;;;16.10;100.00;-25520.34;5050337;28;20490;-81
2022/09/09 08:52:57;;;;;;;;;;;;;;;16.08;100.00;-25519.75;5050938;28;19917;-81
2022/09/09 08:55:31;;;;;;;;;;;;;;;16.12;100.00;-25520.91;5049622;28;20007;-82
2022/09/09 08:58:00;;;;;;;;;;;;;;;16.04;100.00;-25518.59;5051331;28;19916;-81
2022/09/09 09:00:32;;;;;;;;;;;;;;;15.95;100.00;-25515.97;5052175;28;19928;-79
2022/09/09 09:03:09;;;;;;;;;;;;;;;15.83;100.00;-25512.50;5053506;28;19935;-81
2022/09/09 09:05:37;;;;;;;;;;;;;;;15.84;100.00;-25512.78;5054228;28;19916;-81
2022/09/09 09:08:17;;;;;;;;;;;;;;;15.88;100.00;-25513.94;5054232;28;19947;-81
2022/09/09 09:10:42;;;;;;;;;;;;;;;15.90;100.00;-25514.66;5053024;28;19991;-81
2022/09/09 09:13:28;;;;;;;;;;;;;;;15.92;100.00;-25515.09;5053936;28;19921;-83
2022/09/09 09:15:57;;;;;;;;;;;;;;;15.92;100.00;-25515.09;5052381;28;19923;-83
2022/09/09 09:18:22;;;;;;;;;;;;;;;15.89;100.00;-25514.38;5053281;28;19924;-85
2022/09/09 09:20:47;;;;;;;;;;;;;;;15.89;100.00;-25514.38;5054925;28;20012;-85
2022/09/09 09:23:19;;;;;;;;;;;;;;;15.88;100.00;-25513.94;5052844;28;19921;-80
2022/09/09 09:25:44;;;;;;;;;;;;;;;15.92;100.00;-25515.09;5053475;28;20024;-85
2022/09/09 09:28:10;;;;;;;;;;;;;;;15.94;100.00;-25515.69;5053779;28;20393;-85
2022/09/09 09:30:38;;;;;;;;;;;;;;;16.01;100.00;-25517.56;5052954;28;19924;-80
2022/09/09 09:33:13;;;;;;;;;;;;;;;16.12;100.00;-25520.91;5053608;28;19928;-83
2022/09/09 09:35:38;;;;;;;;;;;;;;;15.99;100.00;-25517.13;5053784;28;19917;-85
2022/09/09 09:38:15;;;;;;;;;;;;;;;16.15;100.00;-25521.63;5053139;28;20036;-85
2022/09/09 09:40:48;;;;;;;;;;;;;;;16.19;100.00;-25522.81;5055597;28;19928;-85
2022/09/09 09:43:19;;;;;;;;;;;;;;;16.24;100.00;-25524.25;5053067;28;19921;-87
2022/09/09 09:45:45;;;;;;;;;;;;;;;16.27;100.00;-25524.97;5052336;28;20415;-87
2022/09/09 09:48:12;;;;;;;;;;;;;;;16.39;100.00;-25528.47;5053393;28;19917;-83
2022/09/09 09:50:57;;;;;;;;;;;;;;;16.59;100.00;-25533.97;5053629;28;19931;-85
2022/09/09 09:53:27;;;;;;;;;;;;;;;16.93;100.00;-25543.56;5060624;28;19917;-83
2022/09/09 09:55:57;;;;;;;;;;;;;;;17.47;100.00;-25558.94;5061733;28;19940;-85
2022/09/09 09:58:24;;;;;;;;;;;;;;;17.86;100.00;-25569.78;5059684;28;19964;-84
2022/09/09 10:00:51;;;;;;;;;;;;;;;18.08;100.00;-25576.03;5055347;28;19917;-88
2022/09/09 10:03:26;;;;;;;;;;;;;;;17.78;100.00;-25567.63;5036247;28;19960;-87
2022/09/09 10:05:52;;;;;;;;;;;;;;;17.85;100.00;-25569.50;5054545;28;19963;-84
2022/09/09 10:08:18;;;;;;;;;;;;;;;17.73;100.00;-25566.31;5053279;28;20290;-81
2022/09/09 10:11:03;;;;;;;;;;;;;;;17.44;100.00;-25558.06;5052439;28;20273;-78
2022/09/09 10:13:37;;;;;;;;;;;;;;;17.47;100.00;-25558.78;5050850;28;19921;-78
2022/09/09 10:16:20;;;;;;;;;;;;;;;17.41;100.00;-25557.34;5051885;28;19959;-77
2022/09/09 10:18:46;;;;;;;;;;;;;;;17.41;100.00;-25557.34;5051881;28;20042;-77
2022/09/09 10:21:18;;;;;;;;;;;;;;;17.14;100.00;-25549.66;5050484;28;20368;-76
2022/09/09 10:23:55;;;;;;;;;;;;;;;16.99;100.00;-25545.31;5051653;28;19924;-79
2022/09/09 10:26:33;;;;;;;;;;;;;;;17.19;100.00;-25551.09;5050488;28;19921;-80
2022/09/09 10:29:01;;;;;;;;;;;;;;;17.08;100.00;-25547.91;5051962;28;20227;-78
2022/09/09 10:31:29;;;;;;;;;;;;;;;17.07;100.00;-25547.63;5051656;28;20011;-78
2022/09/09 10:34:13;;;;;;;;;;;;;;;17.13;100.00;-25549.22;5051004;28;20285;-78
2022/09/09 10:36:42;;;;;;;;;;;;;;;16.79;100.00;-25539.63;5051343;28;19917;-76
2022/09/09 10:39:25;;;;;;;;;;;;;;;16.79;100.00;-25539.78;5050902;28;20231;-76
2022/09/09 10:41:54;;;;;;;;;;;;;;;16.71;100.00;-25537.47;5050220;28;20206;-76
2022/09/09 10:44:30;;;;;;;;;;;;;;;16.91;100.00;-25542.97;5051385;28;20026;-77
2022/09/09 10:47:01;;;;;;;;;;;;;;;17.06;100.00;-25547.34;5051288;28;19924;-78
2022/09/09 10:49:45;;;;;;;;;;;;;;;16.82;100.00;-25540.66;5050289;28;19912;-77
2022/09/09 10:52:20;;;;;;;;;;;;;;;16.94;100.00;-25544.00;5051163;28;19916;-79
2022/09/09 10:54:54;;;;;;;;;;;;;;;16.91;100.00;-25542.97;5050425;28;19919;-77
2022/09/09 10:57:28;;;;;;;;;;;;;;;16.76;100.00;-25538.78;5050658;28;20415;-78
2022/09/09 10:59:56;;;;;;;;;;;;;;;16.71;100.00;-25537.47;5051055;28;19917;-77
2022/09/09 11:02:22;;;;;;;;;;;;;;;16.71;100.00;-25537.31;5049862;28;19923;-77
2022/09/09 11:05:10;;;;;;;;;;;;;;;16.68;100.00;-25536.75;5050767;28;20007;-79
2022/09/09 11:07:42;;;;;;;;;;;;;;;16.63;100.00;-25535.16;5045039;28;20392;-81
2022/09/09 11:10:20;;;;;;;;;;;;;;;16.90;100.00;-25542.69;5049423;28;19920;-77
2022/09/09 11:12:47;;;;;;;;;;;;;;;16.93;100.00;-25543.72;5047324;28;20007;-76
2022/09/09 11:15:23;;;;;;;;;;;;;;;17.23;100.00;-25552.25;5050505;28;19917;-77
2022/09/09 11:17:50;;;;;;;;;;;;;;;17.33;100.00;-25555.00;5049552;28;19917;-77
2022/09/09 11:20:15;;;;;;;;;;;;;;;17.47;100.00;-25558.94;5050198;28;20284;-77
2022/09/09 11:22:56;;;;;;;;;;;;;;;17.65;100.00;-25564.00;5050668;28;20007;-75
2022/09/09 11:25:29;;;;;;;;;;;;;;;17.83;100.00;-25569.06;5049708;28;19913;-77
2022/09/09 11:28:07;;;;;;;;;;;;;;;17.91;100.00;-25571.41;5050620;28;19982;-78
2022/09/09 11:30:51;;;;;;;;;;;;;;;17.81;100.00;-25568.34;5049820;28;19917;-77
2022/09/09 11:33:29;;;;;;;;;;;;;;;17.84;100.00;-25569.38;5050860;28;20361;-77
2022/09/09 11:36:08;;;;;;;;;;;;;;;18.07;100.00;-25575.72;5050424;28;20023;-76
2022/09/09 11:38:36;;;;;;;;;;;;;;;18.22;100.00;-25579.94;5049288;28;20028;-77
2022/09/09 11:41:05;;;;;;;;;;;;;;;18.02;100.00;-25574.28;5049976;28;19921;-80
2022/09/09 11:43:33;;;;;;;;;;;;;;;17.79;100.00;-25567.91;5051684;28;19917;-76
2022/09/09 11:46:00;;;;;;;;;;;;;;;17.61;100.00;-25562.69;5049737;28;20206;-77
2022/09/09 11:48:31;;;;;;;;;;;;;;;17.35;100.00;-25555.59;5050491;28;19971;-77
2022/09/09 11:50:58;;;;;;;;;;;;;;;16.92;100.00;-25543.28;5050616;28;19967;-75
2022/09/09 11:53:24;;;;;;;;;;;;;;;16.71;100.00;-25537.47;5050395;28;19924;-75
2022/09/09 11:56:04;;;;;;;;;;;;;;;16.66;100.00;-25536.00;5050458;28;19917;-76
2022/09/09 11:58:35;;;;;;;;;;;;;;;16.73;100.00;-25537.91;5050740;28;19916;-79
2022/09/09 12:01:00;;;;;;;;;;;;;;;16.57;100.00;-25533.41;5051071;28;20007;-83
2022/09/09 12:03:31;;;;;;;;;;;;;;;16.48;100.00;-25531.09;5050808;28;20407;-84
2022/09/09 12:05:58;;;;;;;;;;;;;;;16.52;100.00;-25532.09;5051520;28;19996;-79
2022/09/09 12:08:28;;;;;;;;;;;;;;;16.38;100.00;-25528.03;5053226;28;20002;-84
2022/09/09 12:10:59;;;;;;;;;;;;;;;16.46;100.00;-25530.34;5053193;28;19917;-85
2022/09/09 12:13:26;;;;;;;;;;;;;;;16.42;100.00;-25529.34;5053261;28;20103;-81
2022/09/09 12:15:55;;;;;;;;;;;;;;;16.40;100.00;-25528.75;5057175;28;19935;-87
2022/09/09 12:18:25;;;;;;;;;;;;;;;16.35;100.00;-25527.31;5056569;28;19936;-86
2022/09/09 12:21:11;;;;;;;;;;;;;;;16.38;100.00;-25528.19;5056406;28;19917;-84
2022/09/09 12:23:46;;;;;;;;;;;;;;;16.25;100.00;-25524.41;5050345;28;19917;-85
2022/09/09 12:26:14;;;;;;;;;;;;;;;16.16;100.00;-25521.94;5054075;28;20301;-85
2022/09/09 12:28:40;;;;;;;;;;;;;;;16.12;100.00;-25520.78;5053562;28;19917;-86
2022/09/09 12:31:05;;;;;;;;;;;;;;;16.19;100.00;-25522.66;5053417;28;20015;-87
2022/09/09 12:33:36;;;;;;;;;;;;;;;16.20;100.00;-25523.09;5053545;28;19948;-84
2022/09/09 12:36:04;;;;;;;;;;;;;;;16.40;100.00;-25528.63;5061098;28;19917;-87
2022/09/09 12:38:34;;;;;;;;;;;;;;;16.52;100.00;-25532.09;5060033;28;19917;-86
2022/09/09 12:41:00;;;;;;;;;;;;;;;16.73;100.00;-25538.03;5056191;28;19980;-81